sensor_id;sensor_type;location;lat;lon;timestamp;P1;durP1;ratioP1;P2;durP2;ratioP2
54167;SDS011;68429;50.958;3.592;2023-08-06T00:00:20;21.48;;;11.65;;
54167;SDS011;68429;50.958;3.592;2023-08-06T00:02:46;21.63;;;10.70;;
54167;SDS011;68429;50.958;3.592;2023-08-06T00:05:12;21.40;;;10.35;;
54167;SDS011;68429;50.958;3.592;2023-08-06T00:07:38;19.80;;;11.05;;
54167;SDS011;68429;50.958;3.592;2023-08-06T00:10:04;20.08;;;10.15;;
54167;SDS011;68429;50.958;3.592;2023-08-06T00:12:30;19.80;;;9.38;;
54167;SDS011;68429;50.958;3.592;2023-08-06T00:14:55;15.48;;;9.32;;
54167;SDS011;68429;50.958;3.592;2023-08-06T00:17:21;17.30;;;7.70;;
54167;SDS011;68429;50.958;3.592;2023-08-06T00:19:47;8.77;;;4.65;;
54167;SDS011;68429;50.958;3.592;2023-08-06T00:22:13;9.82;;;3.55;;
54167;SDS011;68429;50.958;3.592;2023-08-06T00:24:38;13.38;;;2.60;;
54167;SDS011;68429;50.958;3.592;2023-08-06T00:27:04;5.63;;;1.63;;
54167;SDS011;68429;50.958;3.592;2023-08-06T00:29:30;7.63;;;1.38;;
54167;SDS011;68429;50.958;3.592;2023-08-06T00:31:55;8.70;;;1.67;;
54167;SDS011;68429;50.958;3.592;2023-08-06T00:34:21;14.52;;;1.95;;
54167;SDS011;68429;50.958;3.592;2023-08-06T00:36:47;9.27;;;1.67;;
54167;SDS011;68429;50.958;3.592;2023-08-06T00:39:12;10.88;;;1.55;;
54167;SDS011;68429;50.958;3.592;2023-08-06T00:41:38;9.48;;;1.40;;
54167;SDS011;68429;50.958;3.592;2023-08-06T00:44:04;16.25;;;2.53;;
54167;SDS011;68429;50.958;3.592;2023-08-06T00:46:30;9.63;;;1.42;;
54167;SDS011;68429;50.958;3.592;2023-08-06T00:48:57;14.57;;;1.35;;
54167;SDS011;68429;50.958;3.592;2023-08-06T00:51:23;7.28;;;1.25;;
54167;SDS011;68429;50.958;3.592;2023-08-06T00:53:50;10.63;;;1.50;;
54167;SDS011;68429;50.958;3.592;2023-08-06T00:56:16;11.68;;;1.70;;
54167;SDS011;68429;50.958;3.592;2023-08-06T00:58:42;9.57;;;1.70;;
54167;SDS011;68429;50.958;3.592;2023-08-06T01:01:09;11.27;;;2.13;;
54167;SDS011;68429;50.958;3.592;2023-08-06T01:03:35;15.45;;;1.90;;
54167;SDS011;68429;50.958;3.592;2023-08-06T01:06:01;12.73;;;2.03;;
54167;SDS011;68429;50.958;3.592;2023-08-06T01:08:39;18.05;;;2.70;;
54167;SDS011;68429;50.958;3.592;2023-08-06T01:14:28;22.05;;;4.40;;
54167;SDS011;68429;50.958;3.592;2023-08-06T01:17:10;16.50;;;3.97;;
54167;SDS011;68429;50.958;3.592;2023-08-06T01:19:37;25.80;;;4.60;;
54167;SDS011;68429;50.958;3.592;2023-08-06T01:22:03;16.13;;;4.68;;
54167;SDS011;68429;50.958;3.592;2023-08-06T01:24:29;16.00;;;3.70;;
54167;SDS011;68429;50.958;3.592;2023-08-06T01:26:59;14.82;;;3.30;;
54167;SDS011;68429;50.958;3.592;2023-08-06T01:29:41;13.80;;;2.90;;
54167;SDS011;68429;50.958;3.592;2023-08-06T01:32:14;12.90;;;3.30;;
54167;SDS011;68429;50.958;3.592;2023-08-06T01:34:41;5.68;;;2.22;;
54167;SDS011;68429;50.958;3.592;2023-08-06T01:37:09;4.50;;;1.40;;
54167;SDS011;68429;50.958;3.592;2023-08-06T01:39:36;3.45;;;1.30;;
54167;SDS011;68429;50.958;3.592;2023-08-06T01:42:01;2.65;;;1.20;;
54167;SDS011;68429;50.958;3.592;2023-08-06T01:44:27;1.75;;;1.02;;
54167;SDS011;68429;50.958;3.592;2023-08-06T01:46:53;2.95;;;1.00;;
54167;SDS011;68429;50.958;3.592;2023-08-06T01:49:19;3.53;;;1.35;;
54167;SDS011;68429;50.958;3.592;2023-08-06T01:51:44;5.03;;;1.27;;
54167;SDS011;68429;50.958;3.592;2023-08-06T01:54:10;7.03;;;1.73;;
54167;SDS011;68429;50.958;3.592;2023-08-06T01:56:36;3.78;;;1.92;;
54167;SDS011;68429;50.958;3.592;2023-08-06T01:59:01;6.05;;;1.83;;
54167;SDS011;68429;50.958;3.592;2023-08-06T02:01:27;9.52;;;2.13;;
54167;SDS011;68429;50.958;3.592;2023-08-06T02:03:52;3.72;;;1.73;;
54167;SDS011;68429;50.958;3.592;2023-08-06T02:06:18;3.30;;;1.65;;
54167;SDS011;68429;50.958;3.592;2023-08-06T02:08:44;4.47;;;1.80;;
54167;SDS011;68429;50.958;3.592;2023-08-06T02:11:10;6.30;;;2.17;;
54167;SDS011;68429;50.958;3.592;2023-08-06T02:13:35;10.85;;;3.13;;
54167;SDS011;68429;50.958;3.592;2023-08-06T02:16:01;7.05;;;2.42;;
54167;SDS011;68429;50.958;3.592;2023-08-06T02:18:27;4.32;;;1.85;;
54167;SDS011;68429;50.958;3.592;2023-08-06T02:20:58;7.53;;;2.60;;
54167;SDS011;68429;50.958;3.592;2023-08-06T02:23:24;11.25;;;2.50;;
54167;SDS011;68429;50.958;3.592;2023-08-06T02:25:57;12.35;;;2.80;;
54167;SDS011;68429;50.958;3.592;2023-08-06T02:28:27;12.13;;;3.08;;
54167;SDS011;68429;50.958;3.592;2023-08-06T02:30:53;8.77;;;3.03;;
54167;SDS011;68429;50.958;3.592;2023-08-06T02:33:19;12.23;;;3.78;;
54167;SDS011;68429;50.958;3.592;2023-08-06T02:35:45;12.02;;;3.65;;
54167;SDS011;68429;50.958;3.592;2023-08-06T02:38:10;11.07;;;3.65;;
54167;SDS011;68429;50.958;3.592;2023-08-06T02:40:36;10.27;;;3.83;;
54167;SDS011;68429;50.958;3.592;2023-08-06T02:43:07;9.98;;;3.65;;
54167;SDS011;68429;50.958;3.592;2023-08-06T02:45:33;10.00;;;4.15;;
54167;SDS011;68429;50.958;3.592;2023-08-06T02:47:58;12.70;;;5.07;;
54167;SDS011;68429;50.958;3.592;2023-08-06T02:50:24;13.90;;;5.20;;
54167;SDS011;68429;50.958;3.592;2023-08-06T02:52:50;9.27;;;4.88;;
54167;SDS011;68429;50.958;3.592;2023-08-06T02:55:15;14.50;;;5.45;;
54167;SDS011;68429;50.958;3.592;2023-08-06T02:57:41;12.27;;;6.15;;
54167;SDS011;68429;50.958;3.592;2023-08-06T03:00:07;22.08;;;6.78;;
54167;SDS011;68429;50.958;3.592;2023-08-06T03:02:33;16.70;;;6.75;;
54167;SDS011;68429;50.958;3.592;2023-08-06T03:04:58;18.42;;;6.88;;
54167;SDS011;68429;50.958;3.592;2023-08-06T03:07:24;10.65;;;6.68;;
54167;SDS011;68429;50.958;3.592;2023-08-06T03:09:50;14.93;;;6.63;;
54167;SDS011;68429;50.958;3.592;2023-08-06T03:12:15;9.75;;;5.22;;
54167;SDS011;68429;50.958;3.592;2023-08-06T03:14:41;14.25;;;5.50;;
54167;SDS011;68429;50.958;3.592;2023-08-06T03:17:06;9.23;;;4.80;;
54167;SDS011;68429;50.958;3.592;2023-08-06T03:19:32;14.45;;;5.55;;
54167;SDS011;68429;50.958;3.592;2023-08-06T03:21:58;10.82;;;5.28;;
54167;SDS011;68429;50.958;3.592;2023-08-06T03:24:23;17.48;;;5.97;;
54167;SDS011;68429;50.958;3.592;2023-08-06T03:26:49;15.32;;;6.82;;
54167;SDS011;68429;50.958;3.592;2023-08-06T03:29:15;18.90;;;6.88;;
54167;SDS011;68429;50.958;3.592;2023-08-06T03:31:41;17.23;;;6.38;;
54167;SDS011;68429;50.958;3.592;2023-08-06T03:34:06;20.88;;;7.07;;
54167;SDS011;68429;50.958;3.592;2023-08-06T03:36:32;19.98;;;7.20;;
54167;SDS011;68429;50.958;3.592;2023-08-06T03:38:57;21.95;;;7.47;;
54167;SDS011;68429;50.958;3.592;2023-08-06T03:41:23;15.13;;;6.30;;
54167;SDS011;68429;50.958;3.592;2023-08-06T03:43:49;15.35;;;6.15;;
54167;SDS011;68429;50.958;3.592;2023-08-06T03:46:14;25.65;;;6.15;;
54167;SDS011;68429;50.958;3.592;2023-08-06T03:48:40;17.23;;;5.55;;
54167;SDS011;68429;50.958;3.592;2023-08-06T03:51:06;14.90;;;5.05;;
54167;SDS011;68429;50.958;3.592;2023-08-06T03:53:31;17.60;;;5.55;;
54167;SDS011;68429;50.958;3.592;2023-08-06T03:55:57;16.55;;;4.53;;
54167;SDS011;68429;50.958;3.592;2023-08-06T03:58:25;17.02;;;4.78;;
54167;SDS011;68429;50.958;3.592;2023-08-06T04:00:58;16.90;;;3.95;;
54167;SDS011;68429;50.958;3.592;2023-08-06T04:03:24;12.93;;;4.05;;
54167;SDS011;68429;50.958;3.592;2023-08-06T04:05:50;14.70;;;3.85;;
54167;SDS011;68429;50.958;3.592;2023-08-06T04:08:16;17.48;;;4.47;;
54167;SDS011;68429;50.958;3.592;2023-08-06T04:10:41;12.63;;;4.40;;
54167;SDS011;68429;50.958;3.592;2023-08-06T04:13:07;13.63;;;3.97;;
54167;SDS011;68429;50.958;3.592;2023-08-06T04:15:33;14.43;;;3.65;;
54167;SDS011;68429;50.958;3.592;2023-08-06T04:17:59;15.18;;;3.70;;
54167;SDS011;68429;50.958;3.592;2023-08-06T04:20:25;11.25;;;4.07;;
54167;SDS011;68429;50.958;3.592;2023-08-06T04:22:50;9.65;;;3.38;;
54167;SDS011;68429;50.958;3.592;2023-08-06T04:25:16;22.27;;;3.72;;
54167;SDS011;68429;50.958;3.592;2023-08-06T04:27:46;9.10;;;3.15;;
54167;SDS011;68429;50.958;3.592;2023-08-06T04:30:12;6.50;;;2.85;;
54167;SDS011;68429;50.958;3.592;2023-08-06T04:32:38;9.93;;;3.55;;
54167;SDS011;68429;50.958;3.592;2023-08-06T04:35:04;15.60;;;3.30;;
54167;SDS011;68429;50.958;3.592;2023-08-06T04:37:30;9.93;;;3.08;;
54167;SDS011;68429;50.958;3.592;2023-08-06T04:39:56;15.45;;;3.60;;
54167;SDS011;68429;50.958;3.592;2023-08-06T04:42:22;10.52;;;3.00;;
54167;SDS011;68429;50.958;3.592;2023-08-06T04:44:47;10.15;;;3.50;;
54167;SDS011;68429;50.958;3.592;2023-08-06T04:47:13;13.63;;;3.55;;
54167;SDS011;68429;50.958;3.592;2023-08-06T04:49:39;10.85;;;3.83;;
54167;SDS011;68429;50.958;3.592;2023-08-06T04:52:04;14.65;;;4.32;;
54167;SDS011;68429;50.958;3.592;2023-08-06T04:54:30;7.90;;;3.45;;
54167;SDS011;68429;50.958;3.592;2023-08-06T04:56:56;12.68;;;3.50;;
54167;SDS011;68429;50.958;3.592;2023-08-06T04:59:22;8.00;;;3.42;;
54167;SDS011;68429;50.958;3.592;2023-08-06T05:01:47;16.55;;;4.32;;
54167;SDS011;68429;50.958;3.592;2023-08-06T05:04:13;17.80;;;4.30;;
54167;SDS011;68429;50.958;3.592;2023-08-06T05:06:39;12.25;;;3.97;;
54167;SDS011;68429;50.958;3.592;2023-08-06T05:09:05;22.88;;;4.65;;
54167;SDS011;68429;50.958;3.592;2023-08-06T05:11:31;13.80;;;4.32;;
54167;SDS011;68429;50.958;3.592;2023-08-06T05:13:57;15.65;;;5.13;;
54167;SDS011;68429;50.958;3.592;2023-08-06T05:16:23;14.20;;;4.97;;
54167;SDS011;68429;50.958;3.592;2023-08-06T05:18:49;18.48;;;4.88;;
54167;SDS011;68429;50.958;3.592;2023-08-06T05:21:14;10.77;;;4.90;;
54167;SDS011;68429;50.958;3.592;2023-08-06T05:23:41;15.30;;;4.82;;
54167;SDS011;68429;50.958;3.592;2023-08-06T05:26:07;18.52;;;5.13;;
54167;SDS011;68429;50.958;3.592;2023-08-06T05:28:34;12.02;;;4.45;;
54167;SDS011;68429;50.958;3.592;2023-08-06T05:31:02;14.35;;;5.03;;
54167;SDS011;68429;50.958;3.592;2023-08-06T05:33:29;14.15;;;4.80;;
54167;SDS011;68429;50.958;3.592;2023-08-06T05:35:55;13.15;;;4.30;;
54167;SDS011;68429;50.958;3.592;2023-08-06T05:38:21;11.23;;;3.63;;
54167;SDS011;68429;50.958;3.592;2023-08-06T05:40:46;13.07;;;3.47;;
54167;SDS011;68429;50.958;3.592;2023-08-06T05:43:12;8.82;;;3.30;;
54167;SDS011;68429;50.958;3.592;2023-08-06T05:45:38;23.10;;;2.72;;
54167;SDS011;68429;50.958;3.592;2023-08-06T05:48:04;11.68;;;2.97;;
54167;SDS011;68429;50.958;3.592;2023-08-06T05:50:29;9.80;;;3.15;;
54167;SDS011;68429;50.958;3.592;2023-08-06T05:52:55;10.13;;;1.98;;
54167;SDS011;68429;50.958;3.592;2023-08-06T05:55:21;10.30;;;2.15;;
54167;SDS011;68429;50.958;3.592;2023-08-06T05:57:47;12.57;;;2.42;;
54167;SDS011;68429;50.958;3.592;2023-08-06T06:00:12;10.05;;;1.70;;
54167;SDS011;68429;50.958;3.592;2023-08-06T06:02:38;6.78;;;1.98;;
54167;SDS011;68429;50.958;3.592;2023-08-06T06:05:04;24.50;;;3.13;;
54167;SDS011;68429;50.958;3.592;2023-08-06T06:07:30;6.50;;;1.58;;
54167;SDS011;68429;50.958;3.592;2023-08-06T06:09:55;13.70;;;2.25;;
54167;SDS011;68429;50.958;3.592;2023-08-06T06:12:21;11.75;;;2.08;;
54167;SDS011;68429;50.958;3.592;2023-08-06T06:14:47;10.00;;;2.20;;
54167;SDS011;68429;50.958;3.592;2023-08-06T06:17:13;8.70;;;1.75;;
54167;SDS011;68429;50.958;3.592;2023-08-06T06:19:38;9.85;;;2.05;;
54167;SDS011;68429;50.958;3.592;2023-08-06T06:22:04;14.25;;;2.20;;
54167;SDS011;68429;50.958;3.592;2023-08-06T06:24:30;11.65;;;1.98;;
54167;SDS011;68429;50.958;3.592;2023-08-06T06:26:55;13.98;;;1.92;;
54167;SDS011;68429;50.958;3.592;2023-08-06T06:29:21;14.10;;;1.75;;
54167;SDS011;68429;50.958;3.592;2023-08-06T06:31:47;5.53;;;1.50;;
54167;SDS011;68429;50.958;3.592;2023-08-06T06:34:12;7.15;;;1.63;;
54167;SDS011;68429;50.958;3.592;2023-08-06T06:36:38;8.00;;;1.88;;
54167;SDS011;68429;50.958;3.592;2023-08-06T06:39:04;9.07;;;2.25;;
54167;SDS011;68429;50.958;3.592;2023-08-06T06:41:29;10.75;;;2.13;;
54167;SDS011;68429;50.958;3.592;2023-08-06T06:43:57;13.10;;;2.90;;
54167;SDS011;68429;50.958;3.592;2023-08-06T06:46:23;9.43;;;2.35;;
54167;SDS011;68429;50.958;3.592;2023-08-06T06:48:49;10.15;;;1.85;;
54167;SDS011;68429;50.958;3.592;2023-08-06T06:51:15;14.75;;;2.63;;
54167;SDS011;68429;50.958;3.592;2023-08-06T06:53:40;8.38;;;1.95;;
54167;SDS011;68429;50.958;3.592;2023-08-06T06:56:06;11.40;;;1.80;;
54167;SDS011;68429;50.958;3.592;2023-08-06T06:58:32;10.18;;;2.97;;
54167;SDS011;68429;50.958;3.592;2023-08-06T07:00:58;15.25;;;3.08;;
54167;SDS011;68429;50.958;3.592;2023-08-06T07:03:23;13.43;;;2.60;;
54167;SDS011;68429;50.958;3.592;2023-08-06T07:05:49;9.52;;;3.22;;
54167;SDS011;68429;50.958;3.592;2023-08-06T07:08:15;8.80;;;2.05;;
54167;SDS011;68429;50.958;3.592;2023-08-06T07:10:41;7.45;;;1.77;;
54167;SDS011;68429;50.958;3.592;2023-08-06T07:13:08;9.82;;;2.20;;
54167;SDS011;68429;50.958;3.592;2023-08-06T07:15:34;10.65;;;2.50;;
54167;SDS011;68429;50.958;3.592;2023-08-06T07:18:00;5.07;;;1.40;;
54167;SDS011;68429;50.958;3.592;2023-08-06T07:20:26;8.98;;;1.73;;
54167;SDS011;68429;50.958;3.592;2023-08-06T07:22:54;5.82;;;1.67;;
54167;SDS011;68429;50.958;3.592;2023-08-06T07:25:20;7.00;;;1.45;;
54167;SDS011;68429;50.958;3.592;2023-08-06T07:27:45;5.05;;;1.48;;
54167;SDS011;68429;50.958;3.592;2023-08-06T07:30:11;5.40;;;1.40;;
54167;SDS011;68429;50.958;3.592;2023-08-06T07:32:37;4.30;;;1.23;;
54167;SDS011;68429;50.958;3.592;2023-08-06T07:35:02;10.23;;;1.73;;
54167;SDS011;68429;50.958;3.592;2023-08-06T07:37:28;8.57;;;1.63;;
54167;SDS011;68429;50.958;3.592;2023-08-06T07:39:55;10.27;;;2.13;;
54167;SDS011;68429;50.958;3.592;2023-08-06T07:42:21;5.68;;;1.50;;
54167;SDS011;68429;50.958;3.592;2023-08-06T07:44:53;11.20;;;2.25;;
54167;SDS011;68429;50.958;3.592;2023-08-06T07:47:21;8.65;;;1.70;;
54167;SDS011;68429;50.958;3.592;2023-08-06T07:49:46;7.90;;;1.73;;
54167;SDS011;68429;50.958;3.592;2023-08-06T07:52:12;12.45;;;3.30;;
54167;SDS011;68429;50.958;3.592;2023-08-06T07:54:38;11.60;;;2.03;;
54167;SDS011;68429;50.958;3.592;2023-08-06T07:57:04;10.55;;;2.33;;
54167;SDS011;68429;50.958;3.592;2023-08-06T07:59:30;6.32;;;1.60;;
54167;SDS011;68429;50.958;3.592;2023-08-06T08:01:55;10.10;;;2.90;;
54167;SDS011;68429;50.958;3.592;2023-08-06T08:04:21;11.63;;;1.90;;
54167;SDS011;68429;50.958;3.592;2023-08-06T08:06:47;10.93;;;2.20;;
54167;SDS011;68429;50.958;3.592;2023-08-06T08:09:13;6.45;;;1.83;;
54167;SDS011;68429;50.958;3.592;2023-08-06T08:11:39;7.60;;;2.10;;
54167;SDS011;68429;50.958;3.592;2023-08-06T08:14:05;9.40;;;1.83;;
54167;SDS011;68429;50.958;3.592;2023-08-06T08:16:31;11.65;;;2.55;;
54167;SDS011;68429;50.958;3.592;2023-08-06T08:18:57;6.93;;;2.10;;
54167;SDS011;68429;50.958;3.592;2023-08-06T08:21:23;9.52;;;2.08;;
54167;SDS011;68429;50.958;3.592;2023-08-06T08:23:49;9.38;;;2.30;;
54167;SDS011;68429;50.958;3.592;2023-08-06T08:26:15;10.00;;;2.13;;
54167;SDS011;68429;50.958;3.592;2023-08-06T08:28:41;15.35;;;2.28;;
54167;SDS011;68429;50.958;3.592;2023-08-06T08:31:10;10.32;;;2.03;;
54167;SDS011;68429;50.958;3.592;2023-08-06T08:33:39;7.88;;;1.88;;
54167;SDS011;68429;50.958;3.592;2023-08-06T08:36:05;7.77;;;1.90;;
54167;SDS011;68429;50.958;3.592;2023-08-06T08:38:30;11.90;;;2.30;;
54167;SDS011;68429;50.958;3.592;2023-08-06T08:40:56;9.70;;;2.70;;
54167;SDS011;68429;50.958;3.592;2023-08-06T08:43:22;7.20;;;1.65;;
54167;SDS011;68429;50.958;3.592;2023-08-06T08:45:50;13.45;;;2.35;;
54167;SDS011;68429;50.958;3.592;2023-08-06T08:48:16;6.97;;;1.70;;
54167;SDS011;68429;50.958;3.592;2023-08-06T08:50:46;7.65;;;1.85;;
54167;SDS011;68429;50.958;3.592;2023-08-06T08:53:14;12.38;;;2.15;;
54167;SDS011;68429;50.958;3.592;2023-08-06T08:55:41;11.15;;;1.73;;
54167;SDS011;68429;50.958;3.592;2023-08-06T08:58:09;8.82;;;2.20;;
54167;SDS011;68429;50.958;3.592;2023-08-06T09:00:35;5.68;;;1.48;;
54167;SDS011;68429;50.958;3.592;2023-08-06T09:03:01;5.63;;;1.88;;
54167;SDS011;68429;50.958;3.592;2023-08-06T09:05:30;9.70;;;1.73;;
54167;SDS011;68429;50.958;3.592;2023-08-06T09:08:00;11.45;;;1.83;;
54167;SDS011;68429;50.958;3.592;2023-08-06T09:10:28;11.15;;;2.45;;
54167;SDS011;68429;50.958;3.592;2023-08-06T09:12:54;6.80;;;2.13;;
54167;SDS011;68429;50.958;3.592;2023-08-06T09:15:24;5.07;;;1.52;;
54167;SDS011;68429;50.958;3.592;2023-08-06T09:17:51;12.10;;;3.22;;
54167;SDS011;68429;50.958;3.592;2023-08-06T09:20:17;9.90;;;2.10;;
54167;SDS011;68429;50.958;3.592;2023-08-06T09:22:43;15.70;;;2.35;;
54167;SDS011;68429;50.958;3.592;2023-08-06T09:25:10;9.05;;;2.42;;
54167;SDS011;68429;50.958;3.592;2023-08-06T09:27:38;5.30;;;1.60;;
54167;SDS011;68429;50.958;3.592;2023-08-06T09:30:07;10.95;;;1.90;;
54167;SDS011;68429;50.958;3.592;2023-08-06T09:32:45;7.28;;;1.65;;
54167;SDS011;68429;50.958;3.592;2023-08-06T09:35:21;5.45;;;1.85;;
54167;SDS011;68429;50.958;3.592;2023-08-06T09:37:46;8.38;;;1.38;;
54167;SDS011;68429;50.958;3.592;2023-08-06T09:40:28;6.72;;;1.98;;
54167;SDS011;68429;50.958;3.592;2023-08-06T09:42:56;3.13;;;1.23;;
54167;SDS011;68429;50.958;3.592;2023-08-06T09:45:22;7.60;;;1.50;;
54167;SDS011;68429;50.958;3.592;2023-08-06T09:47:56;6.95;;;1.50;;
54167;SDS011;68429;50.958;3.592;2023-08-06T09:50:22;6.65;;;1.80;;
54167;SDS011;68429;50.958;3.592;2023-08-06T09:52:53;7.10;;;2.10;;
54167;SDS011;68429;50.958;3.592;2023-08-06T09:55:20;7.82;;;1.90;;
54167;SDS011;68429;50.958;3.592;2023-08-06T09:57:48;9.63;;;1.45;;
54167;SDS011;68429;50.958;3.592;2023-08-06T10:00:14;8.23;;;2.15;;
54167;SDS011;68429;50.958;3.592;2023-08-06T10:02:40;6.93;;;1.90;;
54167;SDS011;68429;50.958;3.592;2023-08-06T10:05:07;10.55;;;2.20;;
54167;SDS011;68429;50.958;3.592;2023-08-06T10:07:34;6.78;;;2.22;;
54167;SDS011;68429;50.958;3.592;2023-08-06T10:10:00;5.95;;;2.15;;
54167;SDS011;68429;50.958;3.592;2023-08-06T10:12:28;7.20;;;1.88;;
54167;SDS011;68429;50.958;3.592;2023-08-06T10:14:59;5.97;;;1.92;;
54167;SDS011;68429;50.958;3.592;2023-08-06T10:17:26;10.82;;;2.35;;
54167;SDS011;68429;50.958;3.592;2023-08-06T10:19:53;10.13;;;2.53;;
54167;SDS011;68429;50.958;3.592;2023-08-06T10:22:22;17.08;;;2.90;;
54167;SDS011;68429;50.958;3.592;2023-08-06T10:24:50;9.88;;;2.03;;
54167;SDS011;68429;50.958;3.592;2023-08-06T10:27:23;8.65;;;1.83;;
54167;SDS011;68429;50.958;3.592;2023-08-06T10:30:21;4.97;;;1.58;;
54167;SDS011;68429;50.958;3.592;2023-08-06T10:32:52;7.53;;;1.88;;
54167;SDS011;68429;50.958;3.592;2023-08-06T10:35:41;6.57;;;2.38;;
54167;SDS011;68429;50.958;3.592;2023-08-06T10:38:14;6.50;;;1.80;;
54167;SDS011;68429;50.958;3.592;2023-08-06T10:40:49;5.50;;;1.65;;
54167;SDS011;68429;50.958;3.592;2023-08-06T10:43:24;6.63;;;1.40;;
54167;SDS011;68429;50.958;3.592;2023-08-06T10:45:52;5.60;;;1.50;;
54167;SDS011;68429;50.958;3.592;2023-08-06T10:50:56;5.78;;;1.40;;
54167;SDS011;68429;50.958;3.592;2023-08-06T10:53:22;8.65;;;1.85;;
54167;SDS011;68429;50.958;3.592;2023-08-06T10:55:48;9.27;;;1.90;;
54167;SDS011;68429;50.958;3.592;2023-08-06T10:58:17;5.00;;;1.50;;
54167;SDS011;68429;50.958;3.592;2023-08-06T11:00:42;6.83;;;1.70;;
54167;SDS011;68429;50.958;3.592;2023-08-06T11:03:08;7.00;;;2.20;;
54167;SDS011;68429;50.958;3.592;2023-08-06T11:05:34;4.80;;;1.70;;
54167;SDS011;68429;50.958;3.592;2023-08-06T11:08:01;7.38;;;2.05;;
54167;SDS011;68429;50.958;3.592;2023-08-06T11:10:26;5.35;;;1.90;;
54167;SDS011;68429;50.958;3.592;2023-08-06T11:12:52;7.78;;;2.10;;
54167;SDS011;68429;50.958;3.592;2023-08-06T11:15:19;5.70;;;1.65;;
54167;SDS011;68429;50.958;3.592;2023-08-06T11:17:46;8.95;;;2.13;;
54167;SDS011;68429;50.958;3.592;2023-08-06T11:20:12;7.00;;;1.90;;
54167;SDS011;68429;50.958;3.592;2023-08-06T11:22:38;11.02;;;2.65;;
54167;SDS011;68429;50.958;3.592;2023-08-06T11:25:07;12.98;;;2.42;;
54167;SDS011;68429;50.958;3.592;2023-08-06T11:27:33;8.25;;;2.33;;
54167;SDS011;68429;50.958;3.592;2023-08-06T11:29:59;5.90;;;1.95;;
54167;SDS011;68429;50.958;3.592;2023-08-06T11:32:25;9.30;;;2.08;;
54167;SDS011;68429;50.958;3.592;2023-08-06T11:34:52;8.75;;;2.10;;
54167;SDS011;68429;50.958;3.592;2023-08-06T11:37:22;7.82;;;1.85;;
54167;SDS011;68429;50.958;3.592;2023-08-06T11:39:51;6.80;;;1.95;;
54167;SDS011;68429;50.958;3.592;2023-08-06T11:42:17;8.30;;;1.80;;
54167;SDS011;68429;50.958;3.592;2023-08-06T11:44:43;5.53;;;1.77;;
54167;SDS011;68429;50.958;3.592;2023-08-06T11:47:12;9.57;;;2.10;;
54167;SDS011;68429;50.958;3.592;2023-08-06T11:49:40;6.63;;;2.28;;
54167;SDS011;68429;50.958;3.592;2023-08-06T11:52:19;5.10;;;1.73;;
54167;SDS011;68429;50.958;3.592;2023-08-06T11:54:47;10.45;;;2.40;;
54167;SDS011;68429;50.958;3.592;2023-08-06T11:57:24;8.73;;;1.92;;
54167;SDS011;68429;50.958;3.592;2023-08-06T11:59:50;14.60;;;2.63;;
54167;SDS011;68429;50.958;3.592;2023-08-06T12:02:15;8.05;;;2.67;;
54167;SDS011;68429;50.958;3.592;2023-08-06T12:05:04;11.63;;;2.53;;
54167;SDS011;68429;50.958;3.592;2023-08-06T12:07:38;6.78;;;2.40;;
54167;SDS011;68429;50.958;3.592;2023-08-06T12:10:06;7.43;;;2.33;;
54167;SDS011;68429;50.958;3.592;2023-08-06T12:12:36;7.53;;;2.40;;
54167;SDS011;68429;50.958;3.592;2023-08-06T12:15:02;5.47;;;2.00;;
54167;SDS011;68429;50.958;3.592;2023-08-06T12:17:29;7.55;;;2.22;;
54167;SDS011;68429;50.958;3.592;2023-08-06T12:19:54;10.00;;;2.25;;
54167;SDS011;68429;50.958;3.592;2023-08-06T12:22:20;11.52;;;3.13;;
54167;SDS011;68429;50.958;3.592;2023-08-06T12:24:46;9.07;;;2.00;;
54167;SDS011;68429;50.958;3.592;2023-08-06T12:27:12;8.95;;;2.05;;
54167;SDS011;68429;50.958;3.592;2023-08-06T12:29:44;11.13;;;2.97;;
54167;SDS011;68429;50.958;3.592;2023-08-06T12:32:11;7.32;;;1.70;;
54167;SDS011;68429;50.958;3.592;2023-08-06T12:34:38;11.40;;;2.33;;
54167;SDS011;68429;50.958;3.592;2023-08-06T12:37:04;9.10;;;2.13;;
54167;SDS011;68429;50.958;3.592;2023-08-06T12:39:32;8.45;;;1.65;;
54167;SDS011;68429;50.958;3.592;2023-08-06T12:41:58;7.90;;;1.90;;
54167;SDS011;68429;50.958;3.592;2023-08-06T12:44:24;4.10;;;1.20;;
54167;SDS011;68429;50.958;3.592;2023-08-06T12:46:50;12.25;;;1.58;;
54167;SDS011;68429;50.958;3.592;2023-08-06T12:49:17;6.35;;;1.75;;
54167;SDS011;68429;50.958;3.592;2023-08-06T12:51:43;7.28;;;1.55;;
54167;SDS011;68429;50.958;3.592;2023-08-06T12:54:08;6.93;;;1.95;;
54167;SDS011;68429;50.958;3.592;2023-08-06T12:56:34;8.75;;;2.13;;
54167;SDS011;68429;50.958;3.592;2023-08-06T12:59:00;9.63;;;1.77;;
54167;SDS011;68429;50.958;3.592;2023-08-06T13:01:26;8.43;;;1.92;;
54167;SDS011;68429;50.958;3.592;2023-08-06T13:03:51;9.25;;;2.10;;
54167;SDS011;68429;50.958;3.592;2023-08-06T13:06:17;5.65;;;1.63;;
54167;SDS011;68429;50.958;3.592;2023-08-06T13:08:43;5.78;;;1.90;;
54167;SDS011;68429;50.958;3.592;2023-08-06T13:11:09;9.02;;;2.33;;
54167;SDS011;68429;50.958;3.592;2023-08-06T13:13:34;5.65;;;1.50;;
54167;SDS011;68429;50.958;3.592;2023-08-06T13:16:00;10.38;;;1.85;;
54167;SDS011;68429;50.958;3.592;2023-08-06T13:18:27;7.43;;;2.03;;
54167;SDS011;68429;50.958;3.592;2023-08-06T13:20:54;6.40;;;1.90;;
54167;SDS011;68429;50.958;3.592;2023-08-06T13:23:20;4.40;;;1.50;;
54167;SDS011;68429;50.958;3.592;2023-08-06T13:25:46;5.45;;;1.30;;
54167;SDS011;68429;50.958;3.592;2023-08-06T13:28:12;6.68;;;1.60;;
54167;SDS011;68429;50.958;3.592;2023-08-06T13:30:39;9.02;;;1.98;;
54167;SDS011;68429;50.958;3.592;2023-08-06T13:33:07;5.57;;;1.52;;
54167;SDS011;68429;50.958;3.592;2023-08-06T13:35:34;4.88;;;1.85;;
54167;SDS011;68429;50.958;3.592;2023-08-06T13:37:59;7.70;;;2.00;;
54167;SDS011;68429;50.958;3.592;2023-08-06T13:40:28;6.60;;;2.00;;
54167;SDS011;68429;50.958;3.592;2023-08-06T13:42:57;6.68;;;1.77;;
54167;SDS011;68429;50.958;3.592;2023-08-06T13:45:23;6.72;;;2.45;;
54167;SDS011;68429;50.958;3.592;2023-08-06T13:47:49;9.82;;;3.40;;
54167;SDS011;68429;50.958;3.592;2023-08-06T13:50:15;13.35;;;4.35;;
54167;SDS011;68429;50.958;3.592;2023-08-06T13:52:41;8.27;;;2.50;;
54167;SDS011;68429;50.958;3.592;2023-08-06T13:55:06;8.35;;;2.67;;
54167;SDS011;68429;50.958;3.592;2023-08-06T13:57:33;11.15;;;4.47;;
54167;SDS011;68429;50.958;3.592;2023-08-06T13:59:59;8.45;;;2.28;;
54167;SDS011;68429;50.958;3.592;2023-08-06T14:02:25;8.85;;;2.15;;
54167;SDS011;68429;50.958;3.592;2023-08-06T14:04:52;12.57;;;2.40;;
54167;SDS011;68429;50.958;3.592;2023-08-06T14:07:18;10.68;;;2.40;;
54167;SDS011;68429;50.958;3.592;2023-08-06T14:09:44;10.95;;;2.42;;
54167;SDS011;68429;50.958;3.592;2023-08-06T14:12:12;7.38;;;2.40;;
54167;SDS011;68429;50.958;3.592;2023-08-06T14:14:37;11.95;;;2.83;;
54167;SDS011;68429;50.958;3.592;2023-08-06T14:17:03;9.30;;;2.22;;
54167;SDS011;68429;50.958;3.592;2023-08-06T14:19:29;11.40;;;2.83;;
54167;SDS011;68429;50.958;3.592;2023-08-06T14:21:55;8.07;;;1.90;;
54167;SDS011;68429;50.958;3.592;2023-08-06T14:24:21;12.25;;;2.25;;
54167;SDS011;68429;50.958;3.592;2023-08-06T14:26:46;10.20;;;2.42;;
54167;SDS011;68429;50.958;3.592;2023-08-06T14:29:12;12.25;;;2.40;;
54167;SDS011;68429;50.958;3.592;2023-08-06T14:31:38;11.52;;;2.70;;
54167;SDS011;68429;50.958;3.592;2023-08-06T14:34:04;9.13;;;2.55;;
54167;SDS011;68429;50.958;3.592;2023-08-06T14:36:30;6.80;;;1.58;;
54167;SDS011;68429;50.958;3.592;2023-08-06T14:38:56;5.38;;;2.50;;
54167;SDS011;68429;50.958;3.592;2023-08-06T14:41:22;9.43;;;2.08;;
54167;SDS011;68429;50.958;3.592;2023-08-06T14:43:47;10.32;;;1.83;;